Time,TemperatureF,DewpointF,PressureIn,WindDirection,WindDirectionDegrees,WindSpeedMPH,WindSpeedGustMPH,Humidity,HourlyPrecipIn,Conditions,Clouds,dailyrainin,SoftwareType,DateUTC
2013-04-17 00:00:00,40.4,33.4,30.25,ENE,69,5.8,5.8,76,0.00,RA,,0.00,WeatherDisplay:10.37,2013-04-17 04:00:00,
2013-04-17 00:01:00,40.3,33.3,30.25,ENE,71,3.5,3.5,76,0.00,RA,,0.00,WeatherDisplay:10.37,2013-04-17 04:01:00,
2013-04-17 00:02:00,40.3,33.3,30.25,ENE,71,2.3,2.3,76,0.00,RA,,0.00,WeatherDisplay:10.37,2013-04-17 04:02:00,
2013-04-17 00:04:00,40.3,33.3,30.25,ENE,71,1.1,0.0,76,0.00,RA,,0.00,WeatherDisplay:10.37,2013-04-17 04:04:00,
2013-04-17 00:09:00,40.0,33.4,30.25,ENE,71,2.3,2.3,77,0.00,RA,,0.00,WeatherDisplay:10.37,2013-04-17 04:09:00,
2013-04-17 00:14:00,39.8,33.5,30.25,ENE,74,2.3,2.3,78,0.00,CLR,,0.00,WeatherDisplay:10.37,2013-04-17 04:14:00,
2013-04-17 00:19:00,39.7,33.4,30.25,ESE,102,4.6,4.6,78,0.00,CLR,,0.00,WeatherDisplay:10.37,2013-04-17 04:19:00,
2013-04-17 00:24:00,39.6,33.6,30.26,East,99,3.5,3.5,79,0.00,CLR,,0.00,WeatherDisplay:10.37,2013-04-17 04:24:00,
2013-04-17 00:29:00,39.4,33.4,30.25,ENE,78,6.0,6.0,79,0.00,CLR,,0.00,WeatherDisplay:10.37,2013-04-17 04:29:00,
2013-04-17 00:34:00,39.3,33.3,30.26,ENE,74,0.0,0.0,79,0.00,CLR,,0.00,WeatherDisplay:10.37,2013-04-17 04:34:00,
2013-04-17 00:39:00,39.1,33.5,30.25,ENE,74,0.0,0.0,80,0.00,CLR,,0.00,WeatherDisplay:10.37,2013-04-17 04:39:00,
2013-04-17 00:44:00,38.8,33.5,30.26,ENE,73,3.5,3.5,81,0.00,CLR,,0.00,WeatherDisplay:10.37,2013-04-17 04:44:00,
2013-04-17 00:49:00,38.6,33.3,30.26,ENE,73,0.0,0.0,81,0.00,CLR,,0.00,WeatherDisplay:10.37,2013-04-17 04:49:00,
2013-04-17 00:54:00,38.4,33.4,30.26,ENE,73,2.3,2.3,82,0.00,CLR,,0.00,WeatherDisplay:10.37,2013-04-17 04:54:00,
2013-04-17 00:59:00,38.3,33.3,30.26,ENE,72,0.0,0.0,82,0.00,CLR,,0.00,WeatherDisplay:10.37,2013-04-17 04:59:00,
2013-04-17 01:04:00,38.2,33.2,30.26,ENE,73,3.5,3.5,82,0.00,CLR,,0.00,WeatherDisplay:10.37,2013-04-17 05:04:00,
2013-04-17 01:09:00,38.2,33.5,30.26,ENE,73,2.3,2.3,83,0.00,CLR,,0.00,WeatherDisplay:10.37,2013-04-17 05:09:00,
2013-04-17 01:15:00,38.2,33.5,30.26,ENE,73,0.0,0.0,83,0.00,CLR,,0.00,WeatherDisplay:10.37,2013-04-17 05:15:00,
2013-04-17 01:20:00,38.2,33.5,30.27,ENE,76,3.5,3.5,83,0.00,CLR,,0.00,WeatherDisplay:10.37,2013-04-17 05:20:00,
2013-04-17 01:25:00,38.2,33.5,30.27,ENE,76,3.0,3.0,83,0.00,CLR,,0.00,WeatherDisplay:10.37,2013-04-17 05:25:00,
2013-04-17 01:30:00,38.2,33.5,30.28,ENE,76,1.1,0.0,83,0.00,CLR,,0.00,WeatherDisplay:10.37,2013-04-17 05:30:00,
2013-04-17 01:35:00,38.3,33.6,30.28,ENE,74,4.6,4.6,83,0.00,CLR,,0.00,WeatherDisplay:10.37,2013-04-17 05:35:00,
2013-04-17 01:40:00,38.3,33.6,30.28,ENE,74,0.0,0.0,83,0.00,CLR,,0.00,WeatherDisplay:10.37,2013-04-17 05:40:00,
2013-04-17 01:45:00,38.2,33.5,30.28,ENE,74,2.3,2.3,83,0.00,CLR,,0.00,WeatherDisplay:10.37,2013-04-17 05:45:00,
2013-04-17 01:50:00,38.2,33.5,30.29,ENE,74,0.0,0.0,83,0.00,CLR,,0.00,WeatherDisplay:10.37,2013-04-17 05:50:00,
2013-04-17 01:55:00,38.1,33.4,30.30,ENE,74,0.0,0.0,83,0.00,CLR,,0.00,WeatherDisplay:10.37,2013-04-17 05:55:00,
2013-04-17 02:00:00,38.0,33.6,30.29,ENE,74,0.0,0.0,84,0.00,CLR,,0.00,WeatherDisplay:10.37,2013-04-17 06:00:00,
2013-04-17 02:05:00,37.7,33.3,30.29,ENE,74,0.0,0.0,84,0.00,CLR,,0.00,WeatherDisplay:10.37,2013-04-17 06:05:00,
2013-04-17 02:10:00,37.4,33.0,30.28,ENE,74,0.0,0.0,84,0.00,CLR,,0.00,WeatherDisplay:10.37,2013-04-17 06:10:00,
2013-04-17 02:15:00,37.1,33.0,30.28,ENE,74,0.0,0.0,85,0.00,CLR,,0.00,WeatherDisplay:10.37,2013-04-17 06:15:00,
2013-04-17 02:20:00,36.9,33.1,30.28,ENE,74,0.0,0.0,86,0.00,CLR,,0.00,WeatherDisplay:10.37,2013-04-17 06:20:00,
2013-04-17 02:25:00,36.9,33.1,30.29,ENE,74,0.0,0.0,86,0.00,CLR,,0.00,WeatherDisplay:10.37,2013-04-17 06:25:00,
2013-04-17 02:30:00,36.8,33.3,30.29,ENE,74,0.0,0.0,87,0.00,CLR,,0.00,WeatherDisplay:10.37,2013-04-17 06:30:00,
2013-04-17 02:35:00,36.8,33.3,30.30,ENE,74,0.0,0.0,87,0.00,CLR,,0.00,WeatherDisplay:10.37,2013-04-17 06:35:00,
2013-04-17 02:40:00,36.7,33.5,30.29,ENE,74,0.0,0.0,88,0.00,CLR,,0.00,WeatherDisplay:10.37,2013-04-17 06:40:00,
2013-04-17 02:45:00,36.7,33.5,30.30,ENE,74,0.0,0.0,88,0.00,CLR,,0.00,WeatherDisplay:10.37,2013-04-17 06:45:00,
2013-04-17 02:50:00,36.7,33.5,30.30,ENE,74,0.0,0.0,88,0.00,CLR,,0.00,WeatherDisplay:10.37,2013-04-17 06:50:00,
2013-04-17 02:55:00,36.6,33.4,30.30,ENE,74,0.0,0.0,88,0.00,CLR,,0.00,WeatherDisplay:10.37,2013-04-17 06:55:00,
2013-04-17 03:01:00,36.5,33.3,30.30,ENE,74,0.0,0.0,88,0.00,CLR,,0.00,WeatherDisplay:10.37,2013-04-17 07:01:00,
2013-04-17 03:06:00,36.4,33.5,30.30,ENE,74,0.0,0.0,89,0.00,CLR,,0.00,WeatherDisplay:10.37,2013-04-17 07:06:00,
2013-04-17 03:11:00,36.4,33.5,30.30,ENE,74,0.0,0.0,89,0.00,CLR,,0.00,WeatherDisplay:10.37,2013-04-17 07:11:00,
2013-04-17 03:16:00,36.3,33.4,30.30,ENE,74,0.0,0.0,89,0.00,CLR,,0.00,WeatherDisplay:10.37,2013-04-17 07:16:00,
2013-04-17 03:21:00,36.2,33.3,30.31,ENE,74,0.0,0.0,89,0.00,CLR,,0.00,WeatherDisplay:10.37,2013-04-17 07:21:00,
2013-04-17 03:26:00,36.1,33.2,30.31,ENE,74,0.0,0.0,89,0.00,CLR,,0.00,WeatherDisplay:10.37,2013-04-17 07:26:00,
2013-04-17 03:32:00,36.0,33.4,30.31,ENE,74,0.0,0.0,90,0.00,CLR,,0.00,WeatherDisplay:10.37,2013-04-17 07:32:00,
2013-04-17 03:37:00,36.0,33.4,30.32,ENE,74,0.0,0.0,90,0.00,CLR,,0.00,WeatherDisplay:10.37,2013-04-17 07:37:00,
2013-04-17 03:42:00,35.9,33.3,30.32,ENE,74,0.0,0.0,90,0.00,CLR,,0.00,WeatherDisplay:10.37,2013-04-17 07:42:00,
2013-04-17 03:47:00,36.0,33.4,30.32,ENE,74,0.0,0.0,90,0.00,CLR,,0.00,WeatherDisplay:10.37,2013-04-17 07:47:00,
2013-04-17 03:52:00,36.0,33.6,30.32,ENE,74,0.0,0.0,91,0.00,CLR,,0.00,WeatherDisplay:10.37,2013-04-17 07:52:00,
2013-04-17 03:57:00,36.0,33.6,30.33,ENE,74,0.0,0.0,91,0.00,CLR,,0.00,WeatherDisplay:10.37,2013-04-17 07:57:00,
2013-04-17 04:02:00,36.1,33.7,30.32,ENE,74,0.0,0.0,91,0.00,CLR,,0.00,WeatherDisplay:10.37,2013-04-17 08:02:00,
2013-04-17 04:07:00,36.1,33.7,30.32,ENE,74,0.0,0.0,91,0.00,CLR,,0.00,WeatherDisplay:10.37,2013-04-17 08:07:00,
2013-04-17 04:12:00,36.2,33.8,30.32,ENE,74,0.0,0.0,91,0.00,CLR,,0.00,WeatherDisplay:10.37,2013-04-17 08:12:00,
2013-04-17 04:17:00,36.1,33.7,30.33,ENE,74,0.0,0.0,91,0.00,CLR,,0.00,WeatherDisplay:10.37,2013-04-17 08:17:00,
2013-04-17 04:22:00,36.1,33.5,30.33,ENE,74,0.0,0.0,90,0.00,CLR,,0.00,WeatherDisplay:10.37,2013-04-17 08:22:00,
2013-04-17 04:27:00,36.1,33.5,30.32,ENE,74,0.0,0.0,90,0.00,CLR,,0.00,WeatherDisplay:10.37,2013-04-17 08:27:00,
2013-04-17 04:32:00,36.1,33.7,30.33,ENE,74,0.0,0.0,91,0.00,CLR,,0.00,WeatherDisplay:10.37,2013-04-17 08:32:00,
2013-04-17 04:37:00,36.1,33.7,30.33,ENE,74,0.0,0.0,91,0.00,CLR,,0.00,WeatherDisplay:10.37,2013-04-17 08:37:00,
2013-04-17 04:42:00,36.1,33.7,30.33,ENE,74,0.0,0.0,91,0.00,CLR,,0.00,WeatherDisplay:10.37,2013-04-17 08:42:00,
2013-04-17 04:47:00,36.1,33.7,30.33,ENE,74,0.0,0.0,91,0.00,CLR,,0.00,WeatherDisplay:10.37,2013-04-17 08:47:00,
2013-04-17 04:52:00,36.1,33.7,30.33,ENE,74,0.0,0.0,91,0.00,CLR,,0.00,WeatherDisplay:10.37,2013-04-17 08:52:00,
2013-04-17 04:57:00,36.1,33.7,30.34,ENE,74,0.0,0.0,91,0.00,CLR,,0.00,WeatherDisplay:10.37,2013-04-17 08:57:00,
2013-04-17 05:02:00,36.0,33.6,30.34,ENE,74,0.0,0.0,91,0.00,CLR,,0.00,WeatherDisplay:10.37,2013-04-17 09:02:00,
2013-04-17 05:07:00,36.0,33.6,30.33,ENE,74,1.1,1.1,91,0.00,CLR,,0.00,WeatherDisplay:10.37,2013-04-17 09:07:00,
2013-04-17 05:12:00,35.9,33.5,30.33,ENE,74,0.0,0.0,91,0.00,CLR,,0.00,WeatherDisplay:10.37,2013-04-17 09:12:00,
2013-04-17 05:17:00,35.9,33.5,30.33,ENE,74,0.0,0.0,91,0.00,CLR,,0.00,WeatherDisplay:10.37,2013-04-17 09:17:00,
2013-04-17 05:22:00,35.8,33.4,30.33,ENE,74,0.0,0.0,91,0.00,CLR,,0.00,WeatherDisplay:10.37,2013-04-17 09:22:00,
2013-04-17 05:27:00,35.8,33.4,30.33,ENE,74,0.0,0.0,91,0.00,CLR,,0.00,WeatherDisplay:10.37,2013-04-17 09:27:00,
2013-04-17 05:32:00,35.7,33.3,30.33,ENE,74,0.0,0.0,91,0.00,CLR,,0.00,WeatherDisplay:10.37,2013-04-17 09:32:00,
2013-04-17 05:37:00,35.7,33.3,30.33,ENE,74,0.0,0.0,91,0.00,CLR,,0.00,WeatherDisplay:10.37,2013-04-17 09:37:00,
2013-04-17 05:42:00,35.6,33.2,30.33,ENE,74,0.0,0.0,91,0.00,CLR,,0.00,WeatherDisplay:10.37,2013-04-17 09:42:00,
2013-04-17 05:47:00,35.5,33.1,30.33,ENE,74,0.0,0.0,91,0.00,CLR,,0.00,WeatherDisplay:10.37,2013-04-17 09:47:00,
2013-04-17 05:52:00,35.4,33.0,30.33,ENE,74,0.0,0.0,91,0.00,CLR,,0.00,WeatherDisplay:10.37,2013-04-17 09:52:00,
2013-04-17 05:57:00,35.3,32.9,30.33,ENE,74,0.0,0.0,91,0.00,CLR,,0.00,WeatherDisplay:10.37,2013-04-17 09:57:00,
2013-04-17 06:02:00,35.2,33.1,30.33,ENE,74,0.0,0.0,92,0.00,CLR,,0.00,WeatherDisplay:10.37,2013-04-17 10:02:00,
2013-04-17 06:07:00,35.0,32.9,30.33,ENE,74,0.0,0.0,92,0.00,CLR,,0.00,WeatherDisplay:10.37,2013-04-17 10:07:00,
2013-04-17 06:12:00,34.7,32.6,30.33,ENE,74,0.0,0.0,92,0.00,CLR,,0.00,WeatherDisplay:10.37,2013-04-17 10:12:00,
2013-04-17 06:17:00,34.5,32.4,30.33,ENE,74,0.0,0.0,92,0.00,CLR,,0.00,WeatherDisplay:10.37,2013-04-17 10:17:00,
2013-04-17 06:22:00,34.4,32.3,30.33,ENE,74,0.0,0.0,92,0.00,CLR,,0.00,WeatherDisplay:10.37,2013-04-17 10:22:00,
2013-04-17 06:27:00,34.4,32.3,30.33,ENE,74,0.0,0.0,92,0.00,CLR,,0.00,WeatherDisplay:10.37,2013-04-17 10:27:00,
2013-04-17 06:32:00,34.1,32.0,30.33,ENE,74,0.0,0.0,92,0.00,CLR,,0.00,WeatherDisplay:10.37,2013-04-17 10:32:00,
2013-04-17 06:37:00,33.8,31.7,30.32,ENE,74,0.0,0.0,92,0.00,CLR,,0.00,WeatherDisplay:10.37,2013-04-17 10:37:00,
2013-04-17 06:42:00,33.6,31.8,30.33,ENE,74,0.0,0.0,93,0.00,CLR,,0.00,WeatherDisplay:10.37,2013-04-17 10:42:00,
2013-04-17 06:47:00,33.5,31.7,30.33,ENE,74,0.0,0.0,93,0.00,CLR,,0.00,WeatherDisplay:10.37,2013-04-17 10:47:00,
2013-04-17 06:52:00,33.4,31.6,30.34,ENE,67,0.0,0.0,93,0.00,CLR,,0.00,WeatherDisplay:10.37,2013-04-17 10:52:00,
2013-04-17 07:00:00,33.1,31.3,30.34,ENE,67,0.0,0.0,93,0.00,CLR,,0.00,WeatherDisplay:10.37,2013-04-17 11:00:00,
2013-04-17 07:06:00,33.0,31.2,30.34,ENE,67,0.0,0.0,93,0.00,CLR,,0.00,WeatherDisplay:10.37,2013-04-17 11:06:00,
2013-04-17 07:11:00,32.9,31.1,30.34,ENE,67,0.0,0.0,93,0.00,CLR,,0.00,WeatherDisplay:10.37,2013-04-17 11:11:00,
2013-04-17 07:16:00,32.8,31.0,30.34,ENE,67,0.0,0.0,93,0.00,CLR,,0.00,WeatherDisplay:10.37,2013-04-17 11:16:00,
2013-04-17 07:21:00,32.8,31.0,30.34,ENE,67,0.0,0.0,93,0.00,CLR,,0.00,WeatherDisplay:10.37,2013-04-17 11:21:00,
2013-04-17 07:26:00,32.7,30.9,30.34,East,96,0.0,0.0,93,0.00,CLR,,0.00,WeatherDisplay:10.37,2013-04-17 11:26:00,
2013-04-17 07:31:00,32.8,31.0,30.34,NE,46,1.1,1.1,93,0.00,CLR,,0.00,WeatherDisplay:10.37,2013-04-17 11:31:00,
2013-04-17 07:36:00,32.8,31.0,30.34,NE,46,0.0,0.0,93,0.00,CLR,,0.00,WeatherDisplay:10.37,2013-04-17 11:36:00,
2013-04-17 07:41:00,33.0,31.2,30.34,NE,46,0.0,0.0,93,0.00,CLR,,0.00,WeatherDisplay:10.37,2013-04-17 11:41:00,
2013-04-17 07:46:00,33.3,31.5,30.34,NE,46,0.0,0.0,93,0.00,CLR,,0.00,WeatherDisplay:10.37,2013-04-17 11:46:00,
2013-04-17 07:51:00,33.6,31.8,30.34,NE,46,1.0,1.0,93,0.00,CLR,,0.00,WeatherDisplay:10.37,2013-04-17 11:51:00,
2013-04-17 07:57:00,34.1,32.3,30.34,NE,46,0.0,0.0,93,0.00,CLR,,0.00,WeatherDisplay:10.37,2013-04-17 11:57:00,
2013-04-17 08:02:00,34.4,32.3,30.34,NE,46,1.1,0.0,92,0.00,CLR,,0.00,WeatherDisplay:10.37,2013-04-17 12:02:00,
2013-04-17 08:07:00,34.8,32.2,30.34,NE,46,0.0,0.0,90,0.00,CLR,,0.00,WeatherDisplay:10.37,2013-04-17 12:07:00,
2013-04-17 08:12:00,35.4,32.2,30.34,NE,46,0.0,0.0,88,0.00,CLR,,0.00,WeatherDisplay:10.37,2013-04-17 12:12:00,
2013-04-17 08:17:00,35.9,32.1,30.34,NE,46,3.5,3.5,86,0.00,CLR,,0.00,WeatherDisplay:10.37,2013-04-17 12:17:00,
2013-04-17 08:23:00,36.5,32.4,30.34,NE,53,3.5,3.5,85,0.00,CLR,,0.00,WeatherDisplay:10.37,2013-04-17 12:23:00,
2013-04-17 08:28:00,37.0,32.0,30.34,ENE,73,2.3,2.3,82,0.00,CLR,,0.00,WeatherDisplay:10.37,2013-04-17 12:28:00,
2013-04-17 08:33:00,36.8,31.2,30.35,NE,37,10.4,10.4,80,0.00,CLR,,0.00,WeatherDisplay:10.37,2013-04-17 12:33:00,
2013-04-17 08:38:00,36.8,31.2,30.35,ENE,76,2.3,0.0,80,0.00,CLR,,0.00,WeatherDisplay:10.37,2013-04-17 12:38:00,
2013-04-17 08:43:00,37.2,31.6,30.35,ENE,58,3.5,3.5,80,0.00,CLR,,0.00,WeatherDisplay:10.37,2013-04-17 12:43:00,
2013-04-17 08:48:00,37.6,31.7,30.35,ENE,65,5.8,5.8,79,0.00,CLR,,0.00,WeatherDisplay:10.37,2013-04-17 12:48:00,
2013-04-17 08:53:00,37.5,31.3,30.35,ENE,75,4.6,4.6,78,0.00,CLR,,0.00,WeatherDisplay:10.37,2013-04-17 12:53:00,
2013-04-17 08:58:00,37.8,31.9,30.34,ENE,67,1.1,1.1,79,0.00,CLR,,0.00,WeatherDisplay:10.37,2013-04-17 12:58:00,
2013-04-17 09:03:00,38.0,32.1,30.35,East,95,5.8,5.8,79,0.00,CLR,,0.00,WeatherDisplay:10.37,2013-04-17 13:03:00,
2013-04-17 09:08:00,38.2,31.9,30.34,ENE,71,6.9,6.9,78,0.00,CLR,,0.00,WeatherDisplay:10.37,2013-04-17 13:08:00,
2013-04-17 09:13:00,38.4,32.1,30.34,ENE,69,4.6,4.6,78,0.00,CLR,,0.00,WeatherDisplay:10.37,2013-04-17 13:13:00,
2013-04-17 09:18:00,38.3,32.4,30.34,ENE,61,5.8,5.8,79,0.00,CLR,,0.00,WeatherDisplay:10.37,2013-04-17 13:18:00,
2013-04-17 09:23:00,38.5,32.2,30.35,ENE,72,3.5,0.0,78,0.00,CLR,,0.00,WeatherDisplay:10.37,2013-04-17 13:23:00,
2013-04-17 09:28:00,38.8,32.5,30.34,East,85,3.5,3.5,78,0.00,CLR,,0.00,WeatherDisplay:10.37,2013-04-17 13:28:00,
2013-04-17 09:33:00,39.5,32.9,30.34,East,79,3.5,3.5,77,0.00,CLR,,0.00,WeatherDisplay:10.37,2013-04-17 13:33:00,
2013-04-17 09:38:00,39.8,33.2,30.34,East,94,0.0,0.0,77,0.00,CLR,,0.00,WeatherDisplay:10.37,2013-04-17 13:38:00,
2013-04-17 09:43:00,40.0,32.7,30.35,ESE,110,6.9,6.9,75,0.00,CLR,,0.00,WeatherDisplay:10.37,2013-04-17 13:43:00,
2013-04-17 09:48:00,40.4,33.4,30.34,ESE,102,5.8,5.8,76,0.00,CLR,,0.00,WeatherDisplay:10.37,2013-04-17 13:48:00,
2013-04-17 09:53:00,40.2,32.9,30.34,East,98,3.5,3.5,75,0.00,CLR,,0.00,WeatherDisplay:10.37,2013-04-17 13:53:00,
2013-04-17 09:58:00,40.7,33.7,30.33,East,79,4.0,4.0,76,0.00,CLR,,0.00,WeatherDisplay:10.37,2013-04-17 13:58:00,
2013-04-17 10:03:00,40.8,34.1,30.33,ENE,58,5.0,5.0,77,0.00,CLR,,0.00,WeatherDisplay:10.37,2013-04-17 14:03:00,
2013-04-17 10:08:00,40.9,33.6,30.33,ENE,71,9.2,9.2,75,0.00,CLR,,0.00,WeatherDisplay:10.37,2013-04-17 14:08:00,
2013-04-17 10:13:00,40.6,34.0,30.33,East,84,6.9,6.9,77,0.00,CLR,,0.00,WeatherDisplay:10.37,2013-04-17 14:13:00,
2013-04-17 10:18:00,40.3,33.7,30.33,ESE,110,9.2,9.2,77,0.00,CLR,,0.00,WeatherDisplay:10.37,2013-04-17 14:18:00,
2013-04-17 10:23:00,40.6,34.3,30.33,ESE,116,10.0,10.0,78,0.00,CLR,,0.00,WeatherDisplay:10.37,2013-04-17 14:23:00,
2013-04-17 10:28:00,41.1,34.4,30.33,East,98,4.6,4.6,77,0.00,CLR,,0.00,WeatherDisplay:10.37,2013-04-17 14:28:00,
2013-04-17 10:33:00,41.1,34.4,30.33,ENE,59,4.6,4.6,77,0.00,CLR,,0.00,WeatherDisplay:10.37,2013-04-17 14:33:00,
2013-04-17 10:38:00,41.7,34.4,30.33,East,84,3.5,3.5,75,0.00,CLR,,0.00,WeatherDisplay:10.37,2013-04-17 14:38:00,
2013-04-17 10:43:00,41.3,34.0,30.33,ENE,70,9.2,9.2,75,0.00,CLR,,0.00,WeatherDisplay:10.37,2013-04-17 14:43:00,
2013-04-17 10:48:00,41.3,34.6,30.33,East,84,4.0,4.0,77,0.00,CLR,,0.00,WeatherDisplay:10.37,2013-04-17 14:48:00,
2013-04-17 10:53:00,41.1,35.1,30.33,ENE,67,4.6,4.6,79,0.00,CLR,,0.00,WeatherDisplay:10.37,2013-04-17 14:53:00,
2013-04-17 10:58:00,41.2,34.9,30.34,ESE,115,3.5,3.5,78,0.00,CLR,,0.00,WeatherDisplay:10.37,2013-04-17 14:58:00,
2013-04-17 11:03:00,40.8,34.5,30.34,NE,54,5.8,5.8,78,0.00,CLR,,0.00,WeatherDisplay:10.37,2013-04-17 15:03:00,
2013-04-17 11:08:00,41.2,35.2,30.35,NE,49,3.5,0.0,79,0.00,CLR,,0.00,WeatherDisplay:10.37,2013-04-17 15:08:00,
2013-04-17 11:13:00,40.9,35.5,30.35,ENE,64,5.0,5.0,81,0.00,CLR,,0.00,WeatherDisplay:10.37,2013-04-17 15:13:00,
2013-04-17 11:18:00,40.4,34.4,30.35,NE,44,10.4,10.4,79,0.00,CLR,,0.00,WeatherDisplay:10.37,2013-04-17 15:18:00,
2013-04-17 11:23:00,40.8,34.5,30.34,East,99,5.8,5.8,78,0.00,CLR,,0.00,WeatherDisplay:10.37,2013-04-17 15:23:00,
2013-04-17 11:28:00,40.6,34.3,30.35,SE,125,5.8,0.0,78,0.00,CLR,,0.00,WeatherDisplay:10.37,2013-04-17 15:28:00,
2013-04-17 11:33:00,40.8,34.5,30.35,East,80,5.8,5.8,78,0.00,CLR,,0.00,WeatherDisplay:10.37,2013-04-17 15:33:00,
2013-04-17 11:38:00,40.4,34.1,30.35,ENE,69,3.5,3.5,78,0.00,CLR,,0.00,WeatherDisplay:10.37,2013-04-17 15:38:00,
2013-04-17 11:43:00,40.7,34.7,30.34,ESE,102,5.8,5.8,79,0.00,CLR,,0.00,WeatherDisplay:10.37,2013-04-17 15:43:00,
2013-04-17 11:48:00,41.2,35.2,30.33,ENE,65,4.6,4.6,79,0.00,CLR,,0.00,WeatherDisplay:10.37,2013-04-17 15:48:00,
2013-04-17 11:53:00,41.5,35.8,30.33,ENE,70,3.5,3.5,80,0.00,CLR,,0.00,WeatherDisplay:10.37,2013-04-17 15:53:00,
2013-04-17 11:58:00,41.4,34.7,30.34,NE,53,10.4,10.4,77,0.00,CLR,,0.00,WeatherDisplay:10.37,2013-04-17 15:58:00,
2013-04-17 12:03:00,41.5,35.2,30.34,ENE,78,5.8,5.8,78,0.00,CLR,,0.00,WeatherDisplay:10.37,2013-04-17 16:03:00,
2013-04-17 12:08:00,41.8,35.1,30.33,East,81,11.5,11.5,77,0.00,CLR,,0.00,WeatherDisplay:10.37,2013-04-17 16:08:00,
2013-04-17 12:13:00,41.9,35.2,30.33,East,93,6.9,6.9,77,0.00,CLR,,0.00,WeatherDisplay:10.37,2013-04-17 16:13:00,
2013-04-17 12:18:00,42.2,35.2,30.33,NE,39,12.0,12.0,76,0.00,CLR,,0.00,WeatherDisplay:10.37,2013-04-17 16:18:00,
2013-04-17 12:25:00,42.9,35.5,30.31,NE,56,10.4,10.4,75,0.00,CLR,,0.00,WeatherDisplay:10.37,2013-04-17 16:25:00,
2013-04-17 12:30:00,43.6,35.9,30.31,East,83,11.5,11.5,74,0.00,CLR,,0.00,WeatherDisplay:10.37,2013-04-17 16:30:00,
2013-04-17 12:35:00,42.8,35.1,30.30,ENE,72,11.5,11.5,74,0.00,CLR,,0.00,WeatherDisplay:10.37,2013-04-17 16:35:00,
2013-04-17 12:40:00,43.3,36.6,30.30,ESE,106,3.5,3.5,77,0.00,CLR,,0.00,WeatherDisplay:10.37,2013-04-17 16:40:00,
2013-04-17 12:45:00,44.2,36.8,30.31,NE,55,10.4,10.4,75,0.00,CLR,,0.00,WeatherDisplay:10.37,2013-04-17 16:45:00,
2013-04-17 12:50:00,44.5,36.7,30.31,ENE,72,11.5,11.5,74,0.00,CLR,,0.00,WeatherDisplay:10.37,2013-04-17 16:50:00,
2013-04-17 12:55:00,44.1,34.2,30.31,NE,54,13.8,13.8,68,0.00,CLR,,0.00,WeatherDisplay:10.37,2013-04-17 16:55:00,
2013-04-17 13:00:00,44.0,34.1,30.31,ENE,72,11.5,11.5,68,0.00,CLR,,0.00,WeatherDisplay:10.37,2013-04-17 17:00:00,
2013-04-17 13:05:00,43.6,33.7,30.31,ENE,72,10.4,10.4,68,0.00,CLR,,0.00,WeatherDisplay:10.37,2013-04-17 17:05:00,
2013-04-17 13:10:00,44.1,34.9,30.31,ESE,113,9.2,9.2,70,0.00,CLR,,0.00,WeatherDisplay:10.37,2013-04-17 17:10:00,
2013-04-17 13:15:00,45.0,34.3,30.31,ENE,72,12.7,12.7,66,0.00,CLR,,0.00,WeatherDisplay:10.37,2013-04-17 17:15:00,
2013-04-17 13:20:00,44.2,34.3,30.31,ENE,67,10.4,10.4,68,0.00,CLR,,0.00,WeatherDisplay:10.37,2013-04-17 17:20:00,
2013-04-17 13:25:00,44.8,35.6,30.31,NE,44,1.1,1.1,70,0.00,CLR,,0.00,WeatherDisplay:10.37,2013-04-17 17:25:00,
2013-04-17 13:30:00,45.4,35.8,30.31,ENE,77,2.3,0.0,69,0.00,CLR,,0.00,WeatherDisplay:10.37,2013-04-17 17:30:00,
2013-04-17 13:35:00,46.1,36.1,30.32,NNE,28,6.9,6.9,68,0.00,CLR,,0.00,WeatherDisplay:10.37,2013-04-17 17:35:00,
2013-04-17 13:40:00,45.9,35.2,30.32,SE,126,5.8,5.8,66,0.00,CLR,,0.00,WeatherDisplay:10.37,2013-04-17 17:40:00,
2013-04-17 13:45:00,45.1,34.4,30.31,ENE,70,11.5,11.5,66,0.00,CLR,,0.00,WeatherDisplay:10.37,2013-04-17 17:45:00,
2013-04-17 13:50:00,44.8,34.9,30.32,ENE,64,5.8,5.8,68,0.00,CLR,,0.00,WeatherDisplay:10.37,2013-04-17 17:50:00,
2013-04-17 13:55:00,44.8,35.2,30.31,East,100,6.9,6.9,69,0.00,CLR,,0.00,WeatherDisplay:10.37,2013-04-17 17:55:00,
2013-04-17 14:00:00,45.3,35.7,30.30,East,87,10.0,10.0,69,0.00,CLR,,0.00,WeatherDisplay:10.37,2013-04-17 18:00:00,
2013-04-17 14:05:00,45.0,36.2,30.28,ENE,61,11.5,11.5,71,0.00,CLR,,0.00,WeatherDisplay:10.37,2013-04-17 18:05:00,
2013-04-17 14:10:00,45.2,36.4,30.28,NNE,14,15.0,15.0,71,0.00,CLR,,0.00,WeatherDisplay:10.37,2013-04-17 18:10:00,
2013-04-17 14:15:00,44.7,36.6,30.27,East,88,12.7,12.7,73,0.00,CLR,,0.00,WeatherDisplay:10.37,2013-04-17 18:15:00,
2013-04-17 14:20:00,45.0,36.9,30.27,East,90,10.4,10.4,73,0.00,CLR,,0.00,WeatherDisplay:10.37,2013-04-17 18:20:00,
2013-04-17 14:25:00,44.7,36.6,30.26,ENE,68,16.1,16.1,73,0.00,CLR,,0.00,WeatherDisplay:10.37,2013-04-17 18:25:00,
2013-04-17 14:30:00,44.2,37.1,30.26,ENE,74,10.4,10.4,76,0.00,CLR,,0.00,WeatherDisplay:10.37,2013-04-17 18:30:00,
2013-04-17 14:35:00,44.1,37.0,30.26,ENE,65,10.4,10.4,76,0.00,CLR,,0.00,WeatherDisplay:10.37,2013-04-17 18:35:00,
2013-04-17 14:40:00,43.7,36.6,30.23,East,91,11.5,11.5,76,0.00,CLR,,0.00,WeatherDisplay:10.37,2013-04-17 18:40:00,
2013-04-17 14:45:00,43.4,36.7,30.22,SE,146,13.8,13.8,77,0.00,CLR,,0.00,WeatherDisplay:10.37,2013-04-17 18:45:00,
2013-04-17 14:50:00,43.1,36.7,30.20,ENE,65,11.5,11.5,78,0.00,CLR,,0.00,WeatherDisplay:10.37,2013-04-17 18:50:00,
2013-04-17 14:55:00,43.4,37.0,30.21,East,82,6.9,6.9,78,0.00,CLR,,0.00,WeatherDisplay:10.37,2013-04-17 18:55:00,
2013-04-17 15:00:00,43.3,36.6,30.22,ENE,73,11.5,11.5,77,0.00,CLR,,0.00,WeatherDisplay:10.37,2013-04-17 19:00:00,
2013-04-17 15:05:00,43.3,36.2,30.22,ENE,57,13.8,13.8,76,0.00,CLR,,0.00,WeatherDisplay:10.37,2013-04-17 19:05:00,
2013-04-17 15:10:00,43.4,36.7,30.24,ENE,74,2.3,0.0,77,0.00,CLR,,0.00,WeatherDisplay:10.37,2013-04-17 19:10:00,
2013-04-17 15:15:00,43.4,36.0,30.25,East,80,11.5,11.5,75,0.00,CLR,,0.00,WeatherDisplay:10.37,2013-04-17 19:15:00,
2013-04-17 15:20:00,43.3,36.2,30.24,NE,49,9.2,9.2,76,0.00,CLR,,0.00,WeatherDisplay:10.37,2013-04-17 19:20:00,
2013-04-17 15:25:00,43.1,35.7,30.25,East,98,4.6,4.6,75,0.00,CLR,,0.00,WeatherDisplay:10.37,2013-04-17 19:25:00,
2013-04-17 15:30:00,43.1,36.0,30.26,East,93,4.6,4.6,76,0.00,CLR,,0.00,WeatherDisplay:10.37,2013-04-17 19:30:00,
2013-04-17 15:35:00,43.1,36.0,30.26,ENE,62,8.0,8.0,76,0.00,CLR,,0.00,WeatherDisplay:10.37,2013-04-17 19:35:00,
2013-04-17 15:40:00,43.1,36.0,30.26,ENE,64,4.6,4.6,76,0.00,CLR,,0.00,WeatherDisplay:10.37,2013-04-17 19:40:00,
2013-04-17 15:45:00,43.0,36.0,30.26,ESE,103,6.9,6.9,76,0.00,CLR,,0.00,WeatherDisplay:10.37,2013-04-17 19:45:00,
2013-04-17 15:50:00,42.9,35.9,30.24,ENE,74,11.5,11.5,76,0.00,CLR,,0.00,WeatherDisplay:10.37,2013-04-17 19:50:00,
2013-04-17 15:55:00,42.7,35.7,30.25,NE,51,6.9,6.9,76,0.00,CLR,,0.00,WeatherDisplay:10.37,2013-04-17 19:55:00,
2013-04-17 16:00:00,42.7,36.0,30.24,ENE,76,8.1,8.1,77,0.00,CLR,,0.00,WeatherDisplay:10.37,2013-04-17 20:00:00,
2013-04-17 16:05:00,42.7,36.3,30.23,NE,51,5.8,5.8,78,0.00,CLR,,0.00,WeatherDisplay:10.37,2013-04-17 20:05:00,
2013-04-17 16:10:00,42.7,36.0,30.23,ENE,75,6.9,6.9,77,0.00,CLR,,0.00,WeatherDisplay:10.37,2013-04-17 20:10:00,
2013-04-17 16:15:00,42.6,35.9,30.22,East,87,3.5,3.5,77,0.00,CLR,,0.00,WeatherDisplay:10.37,2013-04-17 20:15:00,
2013-04-17 16:20:00,42.6,35.9,30.22,NE,34,5.0,5.0,77,0.00,CLR,,0.00,WeatherDisplay:10.37,2013-04-17 20:20:00,
2013-04-17 16:25:00,42.7,35.7,30.22,NE,45,5.8,5.8,76,0.00,CLR,,0.00,WeatherDisplay:10.37,2013-04-17 20:25:00,
2013-04-17 16:30:00,42.6,35.6,30.21,NE,51,10.0,10.0,76,0.00,CLR,,0.00,WeatherDisplay:10.37,2013-04-17 20:30:00,
2013-04-17 16:35:00,42.7,36.0,30.22,ENE,64,2.0,2.0,77,0.00,CLR,,0.00,WeatherDisplay:10.37,2013-04-17 20:35:00,
2013-04-17 16:40:00,42.7,35.7,30.22,NNE,26,6.9,6.9,76,0.00,CLR,,0.00,WeatherDisplay:10.37,2013-04-17 20:40:00,
2013-04-17 16:45:00,42.8,35.8,30.22,ENE,76,5.8,5.8,76,0.00,CLR,,0.00,WeatherDisplay:10.37,2013-04-17 20:45:00,
2013-04-17 16:50:00,42.7,35.7,30.22,NE,42,5.8,5.8,76,0.00,CLR,,0.00,WeatherDisplay:10.37,2013-04-17 20:50:00,
2013-04-17 16:55:00,42.4,36.0,30.21,NE,53,1.1,0.0,78,0.00,CLR,,0.00,WeatherDisplay:10.37,2013-04-17 20:55:00,
2013-04-17 17:00:00,42.1,36.1,30.20,NE,40,8.1,8.1,79,0.00,CLR,,0.00,WeatherDisplay:10.37,2013-04-17 21:00:00,
2013-04-17 17:05:00,41.9,36.5,30.19,NE,41,12.0,12.0,81,0.00,CLR,,0.00,WeatherDisplay:10.37,2013-04-17 21:05:00,
2013-04-17 17:10:00,41.7,36.3,30.19,NE,51,6.0,6.0,81,0.01,RA,,0.01,WeatherDisplay:10.37,2013-04-17 21:10:00,
2013-04-17 17:15:00,41.5,36.1,30.20,ENE,67,6.9,6.9,81,0.01,RA,,0.01,WeatherDisplay:10.37,2013-04-17 21:15:00,
2013-04-17 17:20:00,41.3,36.2,30.20,ENE,57,5.0,5.0,82,0.01,CLR,,0.01,WeatherDisplay:10.37,2013-04-17 21:20:00,
2013-04-17 17:25:00,41.1,36.0,30.20,ENE,65,9.2,9.2,82,0.01,CLR,,0.01,WeatherDisplay:10.37,2013-04-17 21:25:00,
2013-04-17 17:30:00,40.9,35.8,30.20,ENE,74,6.9,6.9,82,0.01,CLR,,0.01,WeatherDisplay:10.37,2013-04-17 21:30:00,
2013-04-17 17:35:00,40.8,36.3,30.20,ENE,65,4.6,4.6,84,0.02,RA,,0.02,WeatherDisplay:10.37,2013-04-17 21:35:00,
2013-04-17 17:40:00,40.7,36.5,30.20,ENE,67,6.9,6.9,85,0.02,RA,,0.02,WeatherDisplay:10.37,2013-04-17 21:40:00,
2013-04-17 17:45:00,40.5,36.3,30.20,NE,51,4.6,4.6,85,0.02,,,0.02,WeatherDisplay:10.37,2013-04-17 21:45:00,
2013-04-17 17:50:00,40.1,35.7,30.22,East,80,6.9,6.9,84,0.03,RA,,0.03,WeatherDisplay:10.37,2013-04-17 21:50:00,
2013-04-17 17:55:00,39.9,36.1,30.23,ENE,75,3.5,3.5,86,0.03,RA,,0.03,WeatherDisplay:10.37,2013-04-17 21:55:00,
2013-04-17 18:00:00,39.7,35.9,30.22,ENE,75,10.4,10.4,86,0.04,RA,,0.04,WeatherDisplay:10.37,2013-04-17 22:00:00,
2013-04-17 18:05:00,39.4,35.9,30.20,ENE,63,9.2,9.2,87,0.05,RA,,0.05,WeatherDisplay:10.37,2013-04-17 22:05:00,
2013-04-17 18:10:00,39.1,35.8,30.20,NE,38,9.2,9.2,88,0.07,RA,,0.08,WeatherDisplay:10.37,2013-04-17 22:10:00,
2013-04-17 18:15:00,38.8,35.8,30.18,NE,53,5.8,5.8,89,0.08,RA,,0.09,WeatherDisplay:10.37,2013-04-17 22:15:00,
2013-04-17 18:20:00,38.5,35.8,30.16,ENE,75,16.1,16.1,90,0.09,RA,,0.10,WeatherDisplay:10.37,2013-04-17 22:20:00,
2013-04-17 18:25:00,38.3,35.6,30.14,NE,55,6.9,6.9,90,0.10,RA,,0.11,WeatherDisplay:10.37,2013-04-17 22:25:00,
2013-04-17 18:30:00,38.1,35.7,30.14,North,9,12.7,12.7,91,0.11,RA,,0.12,WeatherDisplay:10.37,2013-04-17 22:30:00,
2013-04-17 18:35:00,38.1,36.0,30.16,NE,46,11.0,11.0,92,0.11,RA,,0.13,WeatherDisplay:10.37,2013-04-17 22:35:00,
2013-04-17 18:40:00,38.0,35.6,30.17,ENE,78,11.5,11.5,91,0.12,RA,,0.14,WeatherDisplay:10.37,2013-04-17 22:40:00,
2013-04-17 18:45:00,37.9,35.8,30.18,ENE,78,5.8,5.8,92,0.13,RA,,0.15,WeatherDisplay:10.37,2013-04-17 22:45:00,
2013-04-17 18:50:00,37.8,35.7,30.18,ENE,64,9.2,9.2,92,0.13,RA,,0.16,WeatherDisplay:10.37,2013-04-17 22:50:00,
2013-04-17 18:55:00,37.6,35.5,30.18,ENE,61,4.6,0.0,92,0.16,RA,,0.19,WeatherDisplay:10.37,2013-04-17 22:55:00,
2013-04-17 19:00:00,37.4,35.3,30.20,East,84,4.6,4.6,92,0.18,RA,,0.22,WeatherDisplay:10.37,2013-04-17 23:00:00,
2013-04-17 19:05:00,37.3,35.2,30.20,ENE,72,9.0,9.0,92,0.19,RA,,0.24,WeatherDisplay:10.37,2013-04-17 23:05:00,
2013-04-17 19:10:00,37.2,35.1,30.20,NE,51,2.3,2.3,92,0.18,RA,,0.27,WeatherDisplay:10.37,2013-04-17 23:10:00,
2013-04-17 19:15:00,37.1,35.0,30.18,ENE,62,4.6,0.0,92,0.22,RA,,0.31,WeatherDisplay:10.37,2013-04-17 23:15:00,
2013-04-17 19:20:00,37.0,35.2,30.18,East,86,5.8,5.8,93,0.24,RA,,0.34,WeatherDisplay:10.37,2013-04-17 23:20:00,
2013-04-17 19:25:00,37.0,35.2,30.17,ENE,75,4.6,4.6,93,0.24,RA,,0.35,WeatherDisplay:10.37,2013-04-17 23:25:00,
2013-04-17 19:30:00,37.0,35.4,30.15,NE,45,9.2,9.2,94,0.24,RA,,0.36,WeatherDisplay:10.37,2013-04-17 23:30:00,
2013-04-17 19:35:00,37.0,35.4,30.14,NE,52,6.9,6.9,94,0.23,RA,,0.36,WeatherDisplay:10.37,2013-04-17 23:35:00,
2013-04-17 19:40:00,37.0,35.4,30.16,NNE,28,5.8,5.8,94,0.22,,,0.36,WeatherDisplay:10.37,2013-04-17 23:40:00,
2013-04-17 19:45:00,37.0,35.4,30.18,ESE,103,5.0,5.0,94,0.21,CLR,,0.36,WeatherDisplay:10.37,2013-04-17 23:45:00,
2013-04-17 19:50:00,37.1,35.5,30.18,ENE,71,3.0,3.0,94,0.20,CLR,,0.36,WeatherDisplay:10.37,2013-04-17 23:50:00,
2013-04-17 19:55:00,37.1,35.3,30.18,ESE,110,3.0,3.0,93,0.18,RA,,0.37,WeatherDisplay:10.37,2013-04-17 23:55:00,
2013-04-17 20:00:00,37.1,35.3,30.17,East,101,13.8,13.8,93,0.15,RA,,0.37,WeatherDisplay:10.37,2013-04-18 00:00:00,
2013-04-17 20:05:00,37.1,35.3,30.17,ENE,67,5.8,5.8,93,0.14,RA,,0.38,WeatherDisplay:10.37,2013-04-18 00:05:00,
2013-04-17 20:10:00,37.1,35.3,30.17,East,82,3.5,3.5,93,0.12,RA,,0.38,WeatherDisplay:10.37,2013-04-18 00:10:00,
2013-04-17 20:15:00,37.1,35.5,30.17,ESE,103,3.5,3.5,94,0.07,,,0.38,WeatherDisplay:10.37,2013-04-18 00:15:00,
2013-04-17 20:20:00,37.2,35.6,30.18,East,96,3.5,3.5,94,0.04,CLR,,0.38,WeatherDisplay:10.37,2013-04-18 00:20:00,
2013-04-17 20:25:00,37.2,35.6,30.15,ENE,61,5.8,5.8,94,0.03,CLR,,0.38,WeatherDisplay:10.37,2013-04-18 00:25:00,
2013-04-17 20:30:00,37.1,35.5,30.14,ENE,57,4.6,4.6,94,0.03,RA,,0.40,WeatherDisplay:10.37,2013-04-18 00:30:00,
2013-04-17 20:35:00,37.1,35.5,30.14,East,84,5.8,5.8,94,0.04,RA,,0.41,WeatherDisplay:10.37,2013-04-18 00:35:00,
2013-04-17 20:40:00,37.1,35.5,30.13,East,90,4.6,4.6,94,0.05,RA,,0.41,WeatherDisplay:10.37,2013-04-18 00:40:00,
2013-04-17 20:45:00,37.1,35.5,30.14,East,83,3.0,3.0,94,0.05,RA,,0.41,WeatherDisplay:10.37,2013-04-18 00:45:00,
2013-04-17 20:50:00,37.2,35.6,30.14,ENE,76,11.5,11.5,94,0.05,CLR,,0.41,WeatherDisplay:10.37,2013-04-18 00:50:00,
2013-04-17 20:55:00,37.2,35.6,30.12,East,90,4.6,4.6,94,0.05,RA,,0.42,WeatherDisplay:10.37,2013-04-18 00:55:00,
2013-04-17 21:00:00,37.2,35.9,30.11,NE,48,10.4,10.4,95,0.05,RA,,0.42,WeatherDisplay:10.37,2013-04-18 01:00:00,
2013-04-17 21:05:00,37.2,35.9,30.11,ENE,61,11.5,11.5,95,0.04,,,0.42,WeatherDisplay:10.37,2013-04-18 01:05:00,
2013-04-17 21:10:00,37.2,35.9,30.12,ENE,68,4.6,4.6,95,0.04,CLR,,0.42,WeatherDisplay:10.37,2013-04-18 01:10:00,
2013-04-17 21:15:00,37.3,36.0,30.11,NE,34,8.1,8.1,95,0.04,CLR,,0.42,WeatherDisplay:10.37,2013-04-18 01:15:00,
2013-04-17 21:20:00,37.3,36.0,30.11,ESE,103,10.4,10.4,95,0.04,CLR,,0.42,WeatherDisplay:10.37,2013-04-18 01:20:00,
2013-04-17 21:25:00,37.4,36.1,30.11,ENE,74,3.5,3.5,95,0.04,CLR,,0.42,WeatherDisplay:10.37,2013-04-18 01:25:00,
2013-04-17 21:30:00,37.5,36.2,30.11,NE,52,11.5,11.5,95,0.03,CLR,,0.42,WeatherDisplay:10.37,2013-04-18 01:30:00,
2013-04-17 21:35:00,37.6,36.3,30.10,ENE,69,3.5,3.5,95,0.02,CLR,,0.42,WeatherDisplay:10.37,2013-04-18 01:35:00,
2013-04-17 21:40:00,37.7,36.4,30.11,ENE,73,4.6,4.6,95,0.01,CLR,,0.42,WeatherDisplay:10.37,2013-04-18 01:40:00,
2013-04-17 21:45:00,37.8,36.5,30.11,NE,45,3.5,3.5,95,0.01,CLR,,0.42,WeatherDisplay:10.37,2013-04-18 01:45:00,
2013-04-17 21:50:00,37.9,36.6,30.11,ENE,60,4.6,4.6,95,0.01,CLR,,0.42,WeatherDisplay:10.37,2013-04-18 01:50:00,
2013-04-17 21:55:00,38.0,36.7,30.10,NE,38,10.0,10.0,95,0.00,CLR,,0.42,WeatherDisplay:10.37,2013-04-18 01:55:00,
2013-04-17 22:00:00,38.0,36.4,30.09,East,101,11.5,11.5,94,0.00,CLR,,0.42,WeatherDisplay:10.37,2013-04-18 02:00:00,
2013-04-17 22:05:00,38.1,36.5,30.08,ENE,59,2.3,2.3,94,0.00,CLR,,0.42,WeatherDisplay:10.37,2013-04-18 02:05:00,
2013-04-17 22:10:00,38.1,36.5,30.08,NE,48,9.2,9.2,94,0.00,CLR,,0.42,WeatherDisplay:10.37,2013-04-18 02:10:00,
2013-04-17 22:15:00,38.2,36.6,30.07,NE,44,10.4,10.4,94,0.00,CLR,,0.42,WeatherDisplay:10.37,2013-04-18 02:15:00,
2013-04-17 22:20:00,38.2,36.6,30.07,NE,55,12.7,12.7,94,0.00,CLR,,0.42,WeatherDisplay:10.37,2013-04-18 02:20:00,
2013-04-17 22:25:00,38.3,36.7,30.06,ENE,62,9.2,9.2,94,0.00,CLR,,0.42,WeatherDisplay:10.37,2013-04-18 02:25:00,
2013-04-17 22:30:00,38.4,36.8,30.05,ENE,74,6.0,6.0,94,0.00,CLR,,0.42,WeatherDisplay:10.37,2013-04-18 02:30:00,
2013-04-17 22:35:00,38.4,36.8,30.05,ENE,77,4.6,4.6,94,0.00,CLR,,0.42,WeatherDisplay:10.37,2013-04-18 02:35:00,
2013-04-17 22:40:00,38.5,36.9,30.05,NE,45,4.6,4.6,94,0.00,CLR,,0.42,WeatherDisplay:10.37,2013-04-18 02:40:00,
2013-04-17 22:45:00,38.5,36.9,30.05,ENE,65,9.2,9.2,94,0.00,CLR,,0.42,WeatherDisplay:10.37,2013-04-18 02:45:00,
2013-04-17 22:50:00,38.7,37.1,30.06,East,94,5.0,5.0,94,0.00,CLR,,0.42,WeatherDisplay:10.37,2013-04-18 02:50:00,
2013-04-17 22:56:00,38.7,37.1,30.06,East,86,4.6,4.6,94,0.00,CLR,,0.42,WeatherDisplay:10.37,2013-04-18 02:56:00,
2013-04-17 23:01:00,38.8,37.2,30.06,ENE,65,5.0,5.0,94,0.00,CLR,,0.42,WeatherDisplay:10.37,2013-04-18 03:01:00,
2013-04-17 23:06:00,38.9,37.3,30.06,ENE,69,3.5,3.5,94,0.00,CLR,,0.42,WeatherDisplay:10.37,2013-04-18 03:06:00,
2013-04-17 23:11:00,39.0,37.4,30.05,East,81,3.5,3.5,94,0.00,CLR,,0.42,WeatherDisplay:10.37,2013-04-18 03:11:00,
2013-04-17 23:16:00,39.1,37.5,30.05,East,79,3.5,3.5,94,0.00,CLR,,0.42,WeatherDisplay:10.37,2013-04-18 03:16:00,
2013-04-17 23:21:00,39.2,37.6,30.06,ENE,64,5.0,5.0,94,0.00,CLR,,0.42,WeatherDisplay:10.37,2013-04-18 03:21:00,
2013-04-17 23:26:00,39.3,37.7,30.06,ENE,67,4.6,4.6,94,0.00,CLR,,0.42,WeatherDisplay:10.37,2013-04-18 03:26:00,
2013-04-17 23:32:00,39.4,37.8,30.05,ESE,107,3.5,3.5,94,0.00,CLR,,0.42,WeatherDisplay:10.37,2013-04-18 03:32:00,
2013-04-17 23:37:00,39.5,37.9,30.05,NE,45,7.0,7.0,94,0.00,CLR,,0.42,WeatherDisplay:10.37,2013-04-18 03:37:00,
2013-04-17 23:42:00,39.6,38.0,30.05,NE,51,3.5,3.5,94,0.00,CLR,,0.42,WeatherDisplay:10.37,2013-04-18 03:42:00,
2013-04-17 23:47:00,39.9,38.3,30.05,East,98,5.8,5.8,94,0.00,CLR,,0.42,WeatherDisplay:10.37,2013-04-18 03:47:00,
2013-04-17 23:52:00,40.0,38.4,30.05,ESE,110,4.6,4.6,94,0.00,CLR,,0.42,WeatherDisplay:10.37,2013-04-18 03:52:00,
2013-04-17 23:57:00,40.2,38.6,30.04,ENE,64,3.5,3.5,94,0.00,CLR,,0.42,WeatherDisplay:10.37,2013-04-18 03:57:00,